»·PEaware :: ASA180 KSFO-KPDX

ASA180 :: KSFO-KPDX

FLIGHT INFORMATION

Flight Status: Arrived
Operator:
Alaska Airlines
More flights by this operator :: More flights under this callsign
Pilot: Etienne B. (28927)
Aircraft: AIRBUS A320
(A320)
More flights by this aircraft type
Origin: KSFO San Francisco Intl
United States
Destination: KPDX Portland Intl
United States
More flights between these airports :: More routes between these airports
Route: TRUKN2 GRTFL MACHU TMBRS2
File this flight plan on PilotEdge
Remarks: RMK / SIMBRIEF
Altitude:
(Current/Filed)
36,000ft
Speed:
(Current/Filed)
447kts
Departed: 27-Apr-20 04:50 PM
Arrived: 27-Apr-20 06:13 PM
Distance/Time
Traveled:
478nm/1:23
Distance/Time
To Go:
Arrived

Flight Plot

Page will automatically refresh every two minutes.


Map Options




Map Legend


Flown Route
Filed Route
Departure Airport
Arrival Airport
Navaid (VOR, NDB)
Fix

Horizontal Profiles

Position Reports

Time Latitude Longitude Heading Altitude Ground
Speed
27-Apr-20 16:25 37.614358 -122.382728 27 32ft 0kts
27-Apr-20 16:26 37.614358 -122.382728 27 32ft 0kts
27-Apr-20 16:27 37.614358 -122.382728 27 32ft 0kts
27-Apr-20 16:28 37.614358 -122.382728 27 32ft 0kts
27-Apr-20 16:29 37.614358 -122.382728 27 32ft 0kts
27-Apr-20 16:30 37.614358 -122.382728 27 32ft 0kts
27-Apr-20 16:31 37.614358 -122.382728 27 32ft 0kts
27-Apr-20 16:32 37.614358 -122.382728 27 32ft 0kts
27-Apr-20 16:33 37.614358 -122.382728 27 32ft 0kts
27-Apr-20 16:34 37.614358 -122.382728 27 32ft 0kts
27-Apr-20 16:35 37.614358 -122.382728 27 32ft 0kts
27-Apr-20 16:36 37.614358 -122.382728 27 32ft 0kts
27-Apr-20 16:37 37.614271 -122.382785 27 32ft 2kts
27-Apr-20 16:38 37.613981 -122.383154 74 32ft 2kts
27-Apr-20 16:39 37.614030 -122.383636 118 32ft 0kts
27-Apr-20 16:40 37.614030 -122.383636 118 32ft 0kts
27-Apr-20 16:41 37.613694 -122.382810 117 32ft 0kts
27-Apr-20 16:42 37.613675 -122.382762 117 32ft 1kts
27-Apr-20 16:43 37.614996 -122.380742 26 32ft 14kts
27-Apr-20 16:44 37.616488 -122.376100 97 23ft 19kts
27-Apr-20 16:45 37.614532 -122.369043 132 12ft 22kts
27-Apr-20 16:46 37.611472 -122.362587 118 9ft 21kts
27-Apr-20 16:47 37.610790 -122.359183 24 9ft 0kts
27-Apr-20 16:48 37.611027 -122.359050 24 9ft 7kts
27-Apr-20 16:49 37.618815 -122.375625 295 34ft 160kts
27-Apr-20 16:50 37.653552 -122.365343 59 3073ft 198kts
27-Apr-20 16:51 37.680557 -122.298163 55 5124ft 244kts
27-Apr-20 16:52 37.724268 -122.221328 26 7238ft 284kts
27-Apr-20 16:53 37.800565 -122.215829 356 10086ft 284kts
27-Apr-20 16:54 37.886186 -122.218807 357 11487ft 339kts
27-Apr-20 16:55 37.987912 -122.221630 357 12381ft 388kts
27-Apr-20 16:56 38.097410 -122.224621 357 14122ft 399kts
27-Apr-20 16:57 38.209376 -122.227642 357 15748ft 407kts
27-Apr-20 16:58 38.323971 -122.230714 357 17216ft 415kts
27-Apr-20 16:59 38.439981 -122.240586 353 18548ft 422kts
27-Apr-20 17:00 38.557158 -122.252751 353 20427ft 412kts
27-Apr-20 17:01 38.666393 -122.264199 353 23102ft 384kts
27-Apr-20 17:02 38.773778 -122.275391 352 24463ft 391kts
27-Apr-20 17:03 38.883006 -122.286832 352 25696ft 398kts
27-Apr-20 17:04 38.993941 -122.298502 351 26905ft 402kts
27-Apr-20 17:05 39.106180 -122.310352 350 27961ft 407kts
27-Apr-20 17:06 39.219617 -122.322367 350 28956ft 411kts
27-Apr-20 17:07 39.334655 -122.334591 350 29836ft 417kts
27-Apr-20 17:08 39.450763 -122.346968 350 30655ft 421kts
27-Apr-20 17:09 39.567999 -122.359508 349 31386ft 425kts
27-Apr-20 17:10 39.686425 -122.372217 349 32037ft 429kts
27-Apr-20 17:11 39.805002 -122.384983 349 32802ft 427kts
27-Apr-20 17:12 39.923119 -122.397754 349 33506ft 425kts
27-Apr-20 17:13 40.040656 -122.410502 349 34199ft 422kts
27-Apr-20 17:15 40.157085 -122.423172 349 34795ft 420kts
27-Apr-20 17:16 40.273302 -122.435862 349 35337ft 419kts
27-Apr-20 17:17 40.389688 -122.448611 349 35868ft 418kts
27-Apr-20 17:18 40.505051 -122.461297 349 36116ft 417kts
27-Apr-20 17:19 40.620277 -122.474009 349 36119ft 417kts
27-Apr-20 17:20 40.736045 -122.486821 349 36120ft 417kts
27-Apr-20 17:21 40.851668 -122.499662 349 36123ft 417kts
27-Apr-20 17:22 40.967227 -122.512542 349 36111ft 416kts
27-Apr-20 17:23 41.082236 -122.525405 348 36183ft 414kts
27-Apr-20 17:24 41.196552 -122.538244 347 36226ft 411kts
27-Apr-20 17:25 41.310299 -122.551060 347 36212ft 409kts
27-Apr-20 17:26 41.423800 -122.563891 347 36202ft 408kts
27-Apr-20 17:27 41.536736 -122.576169 349 36209ft 410kts
27-Apr-20 17:28 41.650964 -122.583536 349 36213ft 411kts
27-Apr-20 17:29 41.764872 -122.590968 349 36231ft 411kts
27-Apr-20 17:30 41.878797 -122.598422 349 36233ft 411kts
27-Apr-20 17:31 41.993392 -122.605946 349 36234ft 411kts
27-Apr-20 17:31 42.088340 -122.612198 349 36234ft 411kts
27-Apr-20 17:33 42.221620 -122.621026 349 36237ft 412kts
27-Apr-20 17:34 42.336373 -122.628679 349 36243ft 412kts
27-Apr-20 17:34 42.431384 -122.635037 349 36233ft 412kts
27-Apr-20 17:35 42.545592 -122.642704 349 36227ft 412kts
27-Apr-20 17:37 42.679087 -122.651703 348 36229ft 412kts
27-Apr-20 17:37 42.774891 -122.658183 349 36237ft 412kts
27-Apr-20 17:38 42.889451 -122.665959 348 36237ft 412kts
27-Apr-20 17:39 43.003223 -122.673705 347 36280ft 406kts
27-Apr-20 17:40 43.114278 -122.681293 346 36170ft 392kts
27-Apr-20 17:41 43.219459 -122.688518 346 35481ft 370kts
27-Apr-20 17:42 43.322086 -122.695601 346 34792ft 369kts
27-Apr-20 17:43 43.423908 -122.702621 346 34083ft 364kts
27-Apr-20 17:44 43.524355 -122.709555 346 33366ft 362kts
27-Apr-20 17:45 43.624711 -122.716489 346 32622ft 359kts
27-Apr-20 17:46 43.724121 -122.723393 346 31846ft 357kts
27-Apr-20 17:47 43.822775 -122.730254 346 31035ft 352kts
27-Apr-20 17:48 43.918239 -122.736896 345 29530ft 337kts
27-Apr-20 17:49 44.009967 -122.743322 345 28031ft 324kts
27-Apr-20 17:50 44.098409 -122.749560 345 26576ft 316kts
27-Apr-20 17:51 44.186728 -122.749492 351 25097ft 322kts
27-Apr-20 17:52 44.275616 -122.740750 352 23599ft 318kts
27-Apr-20 17:53 44.363232 -122.732129 352 22111ft 315kts
27-Apr-20 17:54 44.459116 -122.722733 354 20462ft 364kts
27-Apr-20 17:55 44.559870 -122.712634 354 18721ft 358kts
27-Apr-20 17:56 44.658378 -122.702793 355 17031ft 352kts
27-Apr-20 17:57 44.755357 -122.693041 355 15407ft 345kts
27-Apr-20 17:58 44.850092 -122.683501 356 13743ft 338kts
27-Apr-20 17:59 44.942791 -122.674164 357 12164ft 330kts
27-Apr-20 18:00 45.031973 -122.665075 356 10647ft 302kts
27-Apr-20 18:01 45.111972 -122.651439 20 9307ft 302kts
27-Apr-20 18:02 45.184681 -122.588974 26 7951ft 304kts
27-Apr-20 18:03 45.255935 -122.528211 26 6575ft 284kts
27-Apr-20 18:04 45.320630 -122.474478 26 5220ft 257kts
27-Apr-20 18:05 45.380815 -122.424781 25 3804ft 246kts
27-Apr-20 18:06 45.439812 -122.377985 20 3010ft 229kts
27-Apr-20 18:07 45.494444 -122.387825 317 2904ft 166kts
27-Apr-20 18:08 45.522254 -122.433297 296 2347ft 150kts
27-Apr-20 18:09 45.541372 -122.483274 297 1617ft 139kts
27-Apr-20 18:10 45.560026 -122.530878 296 922ft 139kts
27-Apr-20 18:11 45.578649 -122.579078 296 193ft 141kts
27-Apr-20 18:12 45.588723 -122.604406 324 38ft 0kts
27-Apr-20 18:13 45.589492 -122.603712 116 38ft 10kts
27-Apr-20 18:14 45.589631 -122.599407 60 38ft 0kts

Navigation Log

Ident Type
Flight plan parsing failed, navigation log unavailable